createdAt,value
2019-04-21T00:05:20.012Z,102543.50
2019-04-21T00:10:33.475Z,102544.50
2019-04-21T00:15:27.200Z,102537.31
2019-04-21T00:20:35.270Z,102540.52
2019-04-21T00:25:45.813Z,102530.44
2019-04-21T00:30:57.646Z,102525.84
2019-04-21T00:35:55.220Z,102519.75
2019-04-21T00:41:13.712Z,102516.67
2019-04-21T00:46:11.957Z,102514.98
2019-04-21T00:51:39.832Z,102521.86
2019-04-21T00:56:41.371Z,102508.19
2019-04-21T01:01:46.266Z,102495.81
2019-04-21T01:06:54.406Z,102497.98
2019-04-21T01:11:55.380Z,102502.70
2019-04-21T01:17:03.850Z,102500.49
2019-04-21T01:21:50.374Z,102486.12
2019-04-21T01:27:06.359Z,102488.13
2019-04-21T01:32:25.533Z,102476.23
2019-04-21T01:37:38.519Z,102482.33
2019-04-21T01:42:42.982Z,102482.41
2019-04-21T01:47:40.895Z,102475.66
2019-04-21T01:52:57.387Z,102472.55
2019-04-21T01:58:01.960Z,102475.05
2019-04-21T02:03:37.522Z,102475.92
2019-04-21T02:08:21.587Z,102475.57
2019-04-21T02:13:28.207Z,102468.78
2019-04-21T02:18:37.959Z,102470.98
2019-04-21T02:24:22.291Z,102459.91
2019-04-21T02:28:55.269Z,102447.33
2019-04-21T02:54:48.139Z,102434.75
2019-04-21T03:04:55.057Z,102413.21
2019-04-21T03:09:57.929Z,102401.66
2019-04-21T03:15:15.624Z,102406.73
2019-04-21T03:20:19.139Z,102395.75
2019-04-21T03:30:58.794Z,102386.41
2019-04-21T03:40:44.411Z,102379.09
2019-04-21T03:50:56.403Z,102374.60
2019-04-21T03:56:12.459Z,102376.20
2019-04-21T04:06:56.058Z,102359.26
2019-04-21T04:11:41.531Z,102354.14
2019-04-21T04:16:49.506Z,102343.23
2019-04-21T04:21:56.554Z,102347.97
2019-04-21T04:26:57.779Z,102339.16
2019-04-21T04:32:00.917Z,102340.52
2019-04-21T04:37:30.268Z,102329.86
2019-04-21T04:52:36.255Z,102300.22
2019-04-21T04:57:59.096Z,102288.33
2019-04-21T05:08:03.324Z,102276.98
2019-04-21T05:12:58.776Z,102274.80
2019-04-21T05:18:10.389Z,102274.19
2019-04-21T05:23:12.118Z,102260.54
2019-04-21T05:28:08.841Z,102253.54
2019-04-21T05:33:43.053Z,102237.11
2019-04-21T05:38:46.568Z,102238.03
2019-04-21T05:43:57.513Z,102239.04
2019-04-21T05:49:13.921Z,102230.30
2019-04-21T05:54:34.280Z,102220.89
2019-04-21T05:59:32.409Z,102210.73
2019-04-21T06:05:03.054Z,102216.47
2019-04-21T06:09:52.553Z,102201.31
2019-04-21T06:14:54.761Z,102211.19
2019-04-21T06:26:08.108Z,102196.82
2019-04-21T06:31:08.107Z,102188.85
2019-04-21T06:36:24.051Z,102191.55
2019-04-21T06:41:21.557Z,102182.39
2019-04-21T06:46:30.832Z,102173.00
2019-04-21T07:01:48.773Z,102150.66
2019-04-21T07:07:00.779Z,102152.04
2019-04-21T07:11:59.908Z,102149.92
2019-04-21T07:17:11.529Z,102124.84
2019-04-21T07:22:17.754Z,102127.56
2019-04-21T07:27:31.981Z,102121.16
2019-04-21T07:32:36.381Z,102114.33
2019-04-21T07:37:35.094Z,102110.66
2019-04-21T07:42:39.973Z,102096.91
2019-04-21T07:47:57.934Z,102092.98
2019-04-21T07:53:30.323Z,102095.45
2019-04-21T07:58:36.377Z,102092.86
2019-04-21T08:03:42.820Z,102096.52
2019-04-21T08:08:49.000Z,102086.16
2019-04-21T08:13:51.962Z,102079.31
2019-04-21T08:19:00.740Z,102076.57
2019-04-21T08:24:13.562Z,102065.48
2019-04-21T08:29:19.147Z,102057.30
2019-04-21T08:34:23.529Z,102057.25
2019-04-21T08:39:33.193Z,102052.47
2019-04-21T08:49:41.437Z,102040.88
2019-04-21T08:54:55.825Z,102045.17
2019-04-21T09:00:05.380Z,102042.23
2019-04-21T09:05:15.536Z,102047.39
2019-04-21T09:10:17.570Z,102058.54
2019-04-21T09:15:30.038Z,102043.00
2019-04-21T09:20:38.733Z,102031.81
2019-04-21T09:30:37.345Z,102014.89
2019-04-21T09:35:36.078Z,102009.39
2019-04-21T09:40:45.873Z,102006.91
2019-04-21T09:45:49.618Z,101990.30
2019-04-21T09:50:55.208Z,101979.51
2019-04-21T09:56:04.914Z,101974.30
2019-04-21T10:01:18.568Z,101962.70
2019-04-21T10:06:17.354Z,101951.08
2019-04-21T10:11:22.635Z,101944.00
2019-04-21T10:16:32.223Z,101942.05
2019-04-21T10:21:38.085Z,101943.45
2019-04-21T10:26:43.274Z,101938.98
2019-04-21T10:31:48.667Z,101930.79
2019-04-21T10:36:55.238Z,101923.82
2019-04-21T10:42:01.492Z,101931.45
2019-04-21T10:47:06.979Z,101936.97
2019-04-21T10:52:20.138Z,101936.45
2019-04-21T10:57:28.342Z,101935.46
